»·PEaware :: N800DW LPFL-LPAZ

N800DW :: LPFL-LPAZ

FLIGHT INFORMATION

Flight Status: Arrived
Operator: Privately registered:
United States
More flights under this callsign
Pilot: Scott L. (17677)
Aircraft: Unknown
(EPIC)
More flights by this aircraft type
Origin: LPFL Flores
Portugal
Destination: LPAZ Santa Maria
Portugal
More flights between these airports :: More routes between these airports
Route: FIL
File this flight plan on PilotEdge
Remarks:
Altitude:
(Current/Filed)
31,000ft
Speed:
(Current/Filed)
300kts
Departed: 19-Apr-18 10:56 AM
Arrived: 19-Apr-18 01:22 PM
Distance/Time
Traveled:
318nm/2:26
Distance/Time
To Go:
Arrived

Flight Plot

Page will automatically refresh every two minutes.

Flight plan parsing failed; only flown route is shown


Map Options




Map Legend


Flown Route
Filed Route
Departure Airport
Arrival Airport
Navaid (VOR, NDB)
Fix

Horizontal Profiles

Position Reports

Time Latitude Longitude Heading Altitude Ground
Speed
19-Apr-18 10:54 39.449715 -31.130121 186 112ft 14kts
19-Apr-18 10:55 39.476025 -31.139803 338 1150ft 179kts
19-Apr-18 10:56 39.488278 -31.095107 144 4550ft 211kts
19-Apr-18 10:57 39.439858 -31.050008 141 8025ft 223kts
19-Apr-18 10:58 39.402590 -30.985541 126 11456ft 232kts
19-Apr-18 10:59 39.371943 -30.910043 123 14487ft 244kts
19-Apr-18 11:00 39.341947 -30.830088 123 17056ft 253kts
19-Apr-18 11:01 39.311345 -30.747459 124 19247ft 259kts
19-Apr-18 11:02 39.280030 -30.662909 125 21113ft 264kts
19-Apr-18 11:03 39.248124 -30.576992 125 22655ft 268kts
19-Apr-18 11:04 39.215570 -30.489613 125 23922ft 274kts
19-Apr-18 11:05 39.182265 -30.400421 125 24987ft 279kts
19-Apr-18 11:06 39.149457 -30.312811 125 25858ft 282kts
19-Apr-18 11:07 39.115057 -30.221229 125 26594ft 286kts
19-Apr-18 11:08 39.080194 -30.128692 125 27251ft 289kts
19-Apr-18 11:09 39.045243 -30.036210 125 27786ft 292kts
19-Apr-18 11:10 39.009574 -29.942117 125 28272ft 294kts
19-Apr-18 11:11 38.973608 -29.847538 125 28685ft 296kts
19-Apr-18 11:12 38.937186 -29.752061 125 29045ft 298kts
19-Apr-18 11:13 38.900657 -29.656605 125 29368ft 299kts
19-Apr-18 11:14 38.863398 -29.559603 125 29464ft 308kts
19-Apr-18 11:15 38.825100 -29.460171 124 29464ft 314kts
19-Apr-18 11:16 38.786219 -29.359546 124 29463ft 316kts
19-Apr-18 11:17 38.747297 -29.259140 125 29457ft 317kts
19-Apr-18 11:18 38.708056 -29.158263 125 29458ft 316kts
19-Apr-18 11:19 38.669721 -29.060033 125 29458ft 316kts
19-Apr-18 11:20 38.630375 -28.959541 125 29459ft 316kts
19-Apr-18 11:21 38.590936 -28.859142 125 29458ft 316kts
19-Apr-18 11:22 38.551341 -28.758675 125 29458ft 316kts
19-Apr-18 11:23 38.521058 -28.652349 105 29462ft 333kts
19-Apr-18 11:24 38.510253 -28.534641 103 29460ft 335kts
19-Apr-18 11:25 38.500464 -28.418282 103 29460ft 335kts
19-Apr-18 11:26 38.490877 -28.304591 104 29455ft 335kts
19-Apr-18 11:27 38.480792 -28.186403 104 29455ft 334kts
19-Apr-18 11:28 38.470617 -28.068541 104 29455ft 334kts
19-Apr-18 11:29 38.460359 -27.951083 104 29456ft 334kts
19-Apr-18 11:30 38.449962 -27.833414 104 29457ft 334kts
19-Apr-18 11:31 38.439442 -27.715736 104 29458ft 334kts
19-Apr-18 11:32 38.428806 -27.598092 104 29459ft 334kts
19-Apr-18 11:33 38.418020 -27.480163 104 29459ft 335kts
19-Apr-18 11:34 38.407151 -27.362580 104 29459ft 335kts
19-Apr-18 11:35 38.396206 -27.245553 105 29453ft 334kts
19-Apr-18 11:36 38.385148 -27.128590 104 29454ft 334kts
19-Apr-18 11:37 38.373945 -27.011315 104 29455ft 333kts
19-Apr-18 11:38 38.362609 -26.893921 104 29456ft 334kts
19-Apr-18 11:39 38.351161 -26.776616 105 29456ft 334kts
19-Apr-18 11:40 38.339634 -26.659748 104 29457ft 334kts
19-Apr-18 11:41 38.327966 -26.542661 104 29457ft 334kts
19-Apr-18 11:42 38.316145 -26.425224 104 29458ft 334kts
19-Apr-18 11:43 38.304248 -26.308270 105 29452ft 334kts
19-Apr-18 11:44 38.292221 -26.191208 105 29439ft 334kts
19-Apr-18 11:45 38.280116 -26.074532 105 29426ft 333kts
19-Apr-18 11:46 38.267893 -25.957897 105 29427ft 333kts
19-Apr-18 11:47 38.255546 -25.841208 105 29427ft 333kts
19-Apr-18 11:48 38.243096 -25.724660 105 29428ft 333kts
19-Apr-18 11:49 38.230506 -25.607933 105 29428ft 333kts
19-Apr-18 11:50 38.217781 -25.491090 105 29429ft 333kts
19-Apr-18 11:51 38.204979 -25.374612 105 29429ft 333kts
19-Apr-18 11:52 38.192072 -25.258286 106 29424ft 333kts
19-Apr-18 11:53 38.179052 -25.142019 106 29425ft 332kts
19-Apr-18 11:54 38.165939 -25.025964 106 29425ft 332kts
19-Apr-18 11:55 38.152717 -24.910009 106 29425ft 332kts
19-Apr-18 11:56 38.139387 -24.794132 106 29426ft 332kts
19-Apr-18 11:57 38.125932 -24.678195 106 29427ft 332kts
19-Apr-18 11:58 38.112319 -24.561954 106 29427ft 332kts
19-Apr-18 11:59 38.098627 -24.446039 106 29427ft 332kts
19-Apr-18 12:00 38.084816 -24.330125 106 29424ft 333kts
19-Apr-18 12:01 38.070891 -24.214281 106 29423ft 332kts
19-Apr-18 12:02 38.056917 -24.098978 106 29423ft 331kts
19-Apr-18 12:03 38.042801 -23.983486 106 29424ft 331kts
19-Apr-18 12:04 38.027932 -23.863828 106 26055ft 365kts
19-Apr-18 12:05 38.012207 -23.736474 106 25423ft 355kts
19-Apr-18 12:06 37.997036 -23.615469 106 25425ft 344kts
19-Apr-18 12:07 37.981995 -23.496622 106 25426ft 340kts
19-Apr-18 12:08 37.966923 -23.378546 106 25426ft 339kts
19-Apr-18 12:09 37.935407 -23.276311 162 25405ft 290kts
19-Apr-18 12:10 37.886478 -23.325350 254 25433ft 282kts
19-Apr-18 12:11 37.856472 -23.414509 236 25432ft 275kts
19-Apr-18 12:12 37.817369 -23.497126 234 25430ft 274kts
19-Apr-18 12:13 37.776838 -23.578800 233 25429ft 274kts
19-Apr-18 12:14 37.738535 -23.655323 233 25430ft 274kts
19-Apr-18 12:15 37.699063 -23.733902 233 25433ft 275kts
19-Apr-18 12:16 37.658099 -23.815276 233 25432ft 275kts
19-Apr-18 12:17 37.617090 -23.896513 233 25431ft 275kts
19-Apr-18 12:18 37.576113 -23.977472 233 25430ft 274kts
19-Apr-18 12:19 37.567720 -23.994039 233 25430ft 274kts
19-Apr-18 12:20 37.567720 -23.994039 233 25430ft 274kts
19-Apr-18 12:21 37.567720 -23.994039 233 25430ft 274kts
19-Apr-18 12:22 37.567720 -23.994039 233 25430ft 274kts
19-Apr-18 12:23 37.557130 -24.014928 233 25429ft 274kts
19-Apr-18 12:24 37.516430 -24.095218 233 23994ft 265kts
19-Apr-18 12:25 37.477506 -24.171683 233 22084ft 256kts
19-Apr-18 12:26 37.439305 -24.246505 234 20175ft 254kts
19-Apr-18 12:27 37.401003 -24.321395 235 18258ft 256kts
19-Apr-18 12:28 37.362402 -24.396706 235 16339ft 258kts
19-Apr-18 12:29 37.323424 -24.472576 236 14423ft 261kts
19-Apr-18 12:30 37.283868 -24.549409 236 12499ft 264kts
19-Apr-18 12:31 37.243874 -24.626897 237 10575ft 266kts
19-Apr-18 12:32 37.203313 -24.705241 238 8670ft 270kts
19-Apr-18 12:33 37.162171 -24.784627 239 6778ft 275kts
19-Apr-18 12:34 37.120547 -24.864753 239 5434ft 263kts
19-Apr-18 12:35 37.083021 -24.936774 239 5429ft 235kts
19-Apr-18 12:36 37.048024 -25.003825 239 5430ft 227kts
19-Apr-18 12:37 37.013808 -25.069247 239 5430ft 224kts
19-Apr-18 12:38 36.979647 -25.134436 239 5430ft 223kts
19-Apr-18 12:39 36.923241 -25.155723 159 5420ft 239kts
19-Apr-18 12:40 36.920518 -25.100830 23 5431ft 227kts
19-Apr-18 12:41 36.974272 -25.126318 358 5423ft 222kts
19-Apr-18 12:42 36.990456 -25.060843 103 5431ft 241kts
19-Apr-18 12:43 36.974110 -24.979286 103 5430ft 242kts
19-Apr-18 12:44 36.957710 -24.897629 103 5431ft 242kts
19-Apr-18 12:45 36.941311 -24.816209 103 5431ft 242kts
19-Apr-18 12:46 36.924814 -24.734475 103 5431ft 242kts
19-Apr-18 12:47 36.908315 -24.652955 103 5431ft 242kts
19-Apr-18 12:48 36.891746 -24.571286 103 5430ft 242kts
19-Apr-18 12:49 36.861708 -24.501242 155 5435ft 239kts
19-Apr-18 12:50 36.801937 -24.464987 155 5430ft 240kts
19-Apr-18 12:51 36.741125 -24.432032 184 5419ft 235kts
19-Apr-18 12:52 36.681941 -24.462325 206 5431ft 230kts
19-Apr-18 12:53 36.623530 -24.494713 206 5430ft 230kts
19-Apr-18 12:54 36.564881 -24.527209 206 5430ft 230kts
19-Apr-18 12:55 36.506354 -24.559610 206 5431ft 231kts
19-Apr-18 12:56 36.447887 -24.591954 206 5431ft 230kts
19-Apr-18 12:57 36.389277 -24.624351 206 5431ft 230kts
19-Apr-18 12:58 36.330632 -24.656744 206 5431ft 230kts
19-Apr-18 12:59 36.274675 -24.693191 242 5423ft 223kts
19-Apr-18 13:00 36.308967 -24.737437 339 5432ft 219kts
19-Apr-18 13:01 36.364477 -24.767923 330 5430ft 218kts
19-Apr-18 13:02 36.417503 -24.804527 328 5430ft 218kts
19-Apr-18 13:03 36.469994 -24.842493 327 5430ft 218kts
19-Apr-18 13:04 36.522290 -24.880744 327 5430ft 218kts
19-Apr-18 13:05 36.574677 -24.919198 327 5430ft 218kts
19-Apr-18 13:06 36.628493 -24.952695 349 5435ft 221kts
19-Apr-18 13:07 36.681486 -24.988514 326 5429ft 218kts
19-Apr-18 13:08 36.732864 -25.028686 326 5429ft 218kts
19-Apr-18 13:09 36.784312 -25.068986 326 5429ft 218kts
19-Apr-18 13:10 36.835609 -25.109156 326 5429ft 218kts
19-Apr-18 13:11 36.887015 -25.149405 326 5429ft 218kts
19-Apr-18 13:12 36.946016 -25.165925 349 5428ft 221kts
19-Apr-18 13:13 36.967056 -25.113221 139 5422ft 240kts
19-Apr-18 13:14 36.912386 -25.068877 110 5419ft 242kts
19-Apr-18 13:15 36.955121 -25.022930 344 3497ft 244kts
19-Apr-18 13:16 37.005967 -25.039721 344 3471ft 143kts
19-Apr-18 13:17 37.027722 -25.070582 257 3001ft 132kts
19-Apr-18 13:18 37.017955 -25.118158 261 1562ft 135kts
19-Apr-18 13:19 37.000810 -25.147851 242 459ft 95kts
19-Apr-18 13:20 36.984892 -25.172463 189 526ft 109kts
19-Apr-18 13:21 36.977601 -25.171760 249 299ft 38kts

Navigation Log

Ident Type
Flight plan parsing failed, navigation log unavailable